sensor_id;sensor_type;location;lat;lon;timestamp;P1;durP1;ratioP1;P2;durP2;ratioP2
577;SDS011;275;48.492;9.214;2023-11-21T00:00:21;5.55;;;2.25;;
577;SDS011;275;48.492;9.214;2023-11-21T00:02:48;5.07;;;2.80;;
577;SDS011;275;48.492;9.214;2023-11-21T00:05:15;6.07;;;2.25;;
577;SDS011;275;48.492;9.214;2023-11-21T00:07:42;5.97;;;2.30;;
577;SDS011;275;48.492;9.214;2023-11-21T00:10:09;5.28;;;1.83;;
577;SDS011;275;48.492;9.214;2023-11-21T00:12:40;6.32;;;1.98;;
577;SDS011;275;48.492;9.214;2023-11-21T00:15:07;5.20;;;2.25;;
577;SDS011;275;48.492;9.214;2023-11-21T00:17:36;6.05;;;2.85;;
577;SDS011;275;48.492;9.214;2023-11-21T00:20:03;6.28;;;2.00;;
577;SDS011;275;48.492;9.214;2023-11-21T00:22:31;6.30;;;2.63;;
577;SDS011;275;48.492;9.214;2023-11-21T00:24:58;4.80;;;2.22;;
577;SDS011;275;48.492;9.214;2023-11-21T00:27:25;4.20;;;1.80;;
577;SDS011;275;48.492;9.214;2023-11-21T00:29:53;4.13;;;1.50;;
577;SDS011;275;48.492;9.214;2023-11-21T00:32:20;4.00;;;2.00;;
577;SDS011;275;48.492;9.214;2023-11-21T00:34:47;5.30;;;1.80;;
577;SDS011;275;48.492;9.214;2023-11-21T00:37:14;4.70;;;1.75;;
577;SDS011;275;48.492;9.214;2023-11-21T00:39:40;4.30;;;1.60;;
577;SDS011;275;48.492;9.214;2023-11-21T00:42:07;3.60;;;1.45;;
577;SDS011;275;48.492;9.214;2023-11-21T00:44:37;4.60;;;1.60;;
577;SDS011;275;48.492;9.214;2023-11-21T00:47:05;3.92;;;1.45;;
577;SDS011;275;48.492;9.214;2023-11-21T00:49:33;4.03;;;1.83;;
577;SDS011;275;48.492;9.214;2023-11-21T00:51:59;3.60;;;1.30;;
577;SDS011;275;48.492;9.214;2023-11-21T00:54:26;3.10;;;1.17;;
577;SDS011;275;48.492;9.214;2023-11-21T00:56:53;4.07;;;1.50;;
577;SDS011;275;48.492;9.214;2023-11-21T00:59:20;3.30;;;1.17;;
577;SDS011;275;48.492;9.214;2023-11-21T01:01:48;3.90;;;1.50;;
577;SDS011;275;48.492;9.214;2023-11-21T01:04:16;2.55;;;1.13;;
577;SDS011;275;48.492;9.214;2023-11-21T01:06:43;3.50;;;1.30;;
577;SDS011;275;48.492;9.214;2023-11-21T01:09:10;3.63;;;1.00;;
577;SDS011;275;48.492;9.214;2023-11-21T01:11:37;2.88;;;1.20;;
577;SDS011;275;48.492;9.214;2023-11-21T01:14:04;4.95;;;1.38;;
577;SDS011;275;48.492;9.214;2023-11-21T01:16:31;3.40;;;1.45;;
577;SDS011;275;48.492;9.214;2023-11-21T01:18:58;3.28;;;1.13;;
577;SDS011;275;48.492;9.214;2023-11-21T01:21:27;3.28;;;1.38;;
577;SDS011;275;48.492;9.214;2023-11-21T01:23:55;3.50;;;1.55;;
577;SDS011;275;48.492;9.214;2023-11-21T01:26:22;3.58;;;1.25;;
577;SDS011;275;48.492;9.214;2023-11-21T01:28:49;2.97;;;0.90;;
577;SDS011;275;48.492;9.214;2023-11-21T01:31:15;3.78;;;1.35;;
577;SDS011;275;48.492;9.214;2023-11-21T01:33:42;3.60;;;1.40;;
577;SDS011;275;48.492;9.214;2023-11-21T01:36:09;2.83;;;1.30;;
577;SDS011;275;48.492;9.214;2023-11-21T01:38:38;6.40;;;4.28;;
577;SDS011;275;48.492;9.214;2023-11-21T01:41:05;4.40;;;1.60;;
577;SDS011;275;48.492;9.214;2023-11-21T01:43:32;2.55;;;1.00;;
577;SDS011;275;48.492;9.214;2023-11-21T01:45:59;2.72;;;1.20;;
577;SDS011;275;48.492;9.214;2023-11-21T01:48:26;3.90;;;1.50;;
577;SDS011;275;48.492;9.214;2023-11-21T01:50:54;5.05;;;4.13;;
577;SDS011;275;48.492;9.214;2023-11-21T01:53:21;3.05;;;1.20;;
577;SDS011;275;48.492;9.214;2023-11-21T01:55:51;2.00;;;0.80;;
577;SDS011;275;48.492;9.214;2023-11-21T01:58:19;2.70;;;0.90;;
577;SDS011;275;48.492;9.214;2023-11-21T02:00:46;2.97;;;1.35;;
577;SDS011;275;48.492;9.214;2023-11-21T02:03:15;2.55;;;1.10;;
577;SDS011;275;48.492;9.214;2023-11-21T02:05:42;3.28;;;0.80;;
577;SDS011;275;48.492;9.214;2023-11-21T02:08:09;2.90;;;0.80;;
577;SDS011;275;48.492;9.214;2023-11-21T02:10:36;2.85;;;0.77;;
577;SDS011;275;48.492;9.214;2023-11-21T02:13:04;2.75;;;0.98;;
577;SDS011;275;48.492;9.214;2023-11-21T02:15:31;2.60;;;0.90;;
577;SDS011;275;48.492;9.214;2023-11-21T02:17:58;3.42;;;0.80;;
577;SDS011;275;48.492;9.214;2023-11-21T02:20:25;2.20;;;0.95;;
577;SDS011;275;48.492;9.214;2023-11-21T02:22:56;2.42;;;0.70;;
577;SDS011;275;48.492;9.214;2023-11-21T02:25:24;3.47;;;1.00;;
577;SDS011;275;48.492;9.214;2023-11-21T02:27:52;2.78;;;1.05;;
577;SDS011;275;48.492;9.214;2023-11-21T02:30:20;2.92;;;0.80;;
577;SDS011;275;48.492;9.214;2023-11-21T02:32:47;2.15;;;0.63;;
577;SDS011;275;48.492;9.214;2023-11-21T02:35:14;2.75;;;0.93;;
577;SDS011;275;48.492;9.214;2023-11-21T02:37:41;2.00;;;0.60;;
577;SDS011;275;48.492;9.214;2023-11-21T02:40:10;2.25;;;0.90;;
577;SDS011;275;48.492;9.214;2023-11-21T02:42:38;2.10;;;0.80;;
577;SDS011;275;48.492;9.214;2023-11-21T02:45:06;2.90;;;0.60;;
577;SDS011;275;48.492;9.214;2023-11-21T02:47:34;1.85;;;0.65;;
577;SDS011;275;48.492;9.214;2023-11-21T02:50:01;2.53;;;0.75;;
577;SDS011;275;48.492;9.214;2023-11-21T02:52:27;2.00;;;0.73;;
577;SDS011;275;48.492;9.214;2023-11-21T02:54:54;2.00;;;0.80;;
577;SDS011;275;48.492;9.214;2023-11-21T02:57:22;2.20;;;0.60;;
577;SDS011;275;48.492;9.214;2023-11-21T02:59:49;2.40;;;0.60;;
577;SDS011;275;48.492;9.214;2023-11-21T03:02:16;2.20;;;0.77;;
577;SDS011;275;48.492;9.214;2023-11-21T03:04:43;2.22;;;0.70;;
577;SDS011;275;48.492;9.214;2023-11-21T03:07:09;4.00;;;0.80;;
577;SDS011;275;48.492;9.214;2023-11-21T03:09:36;2.50;;;0.70;;
577;SDS011;275;48.492;9.214;2023-11-21T03:12:04;2.70;;;0.80;;
577;SDS011;275;48.492;9.214;2023-11-21T03:14:33;2.10;;;0.88;;
577;SDS011;275;48.492;9.214;2023-11-21T03:16:59;2.40;;;0.70;;
577;SDS011;275;48.492;9.214;2023-11-21T03:19:26;2.10;;;0.80;;
577;SDS011;275;48.492;9.214;2023-11-21T03:21:53;2.28;;;0.63;;
577;SDS011;275;48.492;9.214;2023-11-21T03:24:20;1.90;;;0.70;;
577;SDS011;275;48.492;9.214;2023-11-21T03:26:47;2.00;;;0.70;;
577;SDS011;275;48.492;9.214;2023-11-21T03:29:15;3.28;;;0.82;;
577;SDS011;275;48.492;9.214;2023-11-21T03:31:43;4.72;;;0.77;;
577;SDS011;275;48.492;9.214;2023-11-21T03:34:14;3.00;;;0.80;;
577;SDS011;275;48.492;9.214;2023-11-21T03:36:42;2.47;;;0.60;;
577;SDS011;275;48.492;9.214;2023-11-21T03:39:09;3.20;;;0.70;;
577;SDS011;275;48.492;9.214;2023-11-21T03:41:36;1.80;;;0.50;;
577;SDS011;275;48.492;9.214;2023-11-21T03:44:03;2.15;;;0.68;;
577;SDS011;275;48.492;9.214;2023-11-21T03:46:30;2.13;;;0.70;;
577;SDS011;275;48.492;9.214;2023-11-21T03:48:58;1.80;;;0.60;;
577;SDS011;275;48.492;9.214;2023-11-21T03:51:25;2.00;;;0.82;;
577;SDS011;275;48.492;9.214;2023-11-21T03:53:52;2.10;;;0.70;;
577;SDS011;275;48.492;9.214;2023-11-21T03:56:18;2.42;;;0.60;;
577;SDS011;275;48.492;9.214;2023-11-21T03:58:46;2.00;;;0.70;;
577;SDS011;275;48.492;9.214;2023-11-21T04:01:18;2.10;;;0.70;;
577;SDS011;275;48.492;9.214;2023-11-21T04:03:46;2.20;;;0.70;;
577;SDS011;275;48.492;9.214;2023-11-21T04:06:15;1.90;;;0.60;;
577;SDS011;275;48.492;9.214;2023-11-21T04:08:42;1.80;;;0.52;;
577;SDS011;275;48.492;9.214;2023-11-21T04:11:09;1.90;;;0.55;;
577;SDS011;275;48.492;9.214;2023-11-21T04:13:37;3.08;;;1.08;;
577;SDS011;275;48.492;9.214;2023-11-21T04:16:04;2.33;;;0.60;;
577;SDS011;275;48.492;9.214;2023-11-21T04:18:32;1.95;;;0.60;;
577;SDS011;275;48.492;9.214;2023-11-21T04:20:59;1.88;;;0.68;;
577;SDS011;275;48.492;9.214;2023-11-21T04:23:28;1.80;;;0.55;;
577;SDS011;275;48.492;9.214;2023-11-21T04:25:55;1.80;;;0.50;;
577;SDS011;275;48.492;9.214;2023-11-21T04:28:22;3.30;;;1.20;;
577;SDS011;275;48.492;9.214;2023-11-21T04:30:49;4.47;;;2.00;;
577;SDS011;275;48.492;9.214;2023-11-21T04:33:16;2.88;;;1.10;;
577;SDS011;275;48.492;9.214;2023-11-21T04:35:43;3.13;;;1.25;;
577;SDS011;275;48.492;9.214;2023-11-21T04:38:10;4.20;;;0.90;;
577;SDS011;275;48.492;9.214;2023-11-21T04:40:38;2.38;;;0.70;;
577;SDS011;275;48.492;9.214;2023-11-21T04:43:05;1.90;;;0.60;;
577;SDS011;275;48.492;9.214;2023-11-21T04:45:31;2.15;;;0.80;;
577;SDS011;275;48.492;9.214;2023-11-21T04:47:58;1.90;;;0.60;;
577;SDS011;275;48.492;9.214;2023-11-21T04:50:25;1.90;;;0.70;;
577;SDS011;275;48.492;9.214;2023-11-21T04:52:52;2.03;;;0.70;;
577;SDS011;275;48.492;9.214;2023-11-21T04:55:19;1.80;;;0.50;;
577;SDS011;275;48.492;9.214;2023-11-21T04:57:47;2.33;;;0.70;;
577;SDS011;275;48.492;9.214;2023-11-21T05:00:14;2.33;;;0.85;;
577;SDS011;275;48.492;9.214;2023-11-21T05:02:41;2.03;;;0.60;;
577;SDS011;275;48.492;9.214;2023-11-21T05:05:09;2.50;;;0.70;;
577;SDS011;275;48.492;9.214;2023-11-21T05:07:36;2.00;;;0.70;;
577;SDS011;275;48.492;9.214;2023-11-21T05:10:04;2.15;;;0.90;;
577;SDS011;275;48.492;9.214;2023-11-21T05:12:33;2.30;;;0.77;;
577;SDS011;275;48.492;9.214;2023-11-21T05:15:04;1.85;;;0.75;;
577;SDS011;275;48.492;9.214;2023-11-21T05:17:34;2.55;;;0.90;;
577;SDS011;275;48.492;9.214;2023-11-21T05:20:01;2.15;;;0.80;;
577;SDS011;275;48.492;9.214;2023-11-21T05:22:33;2.22;;;0.80;;
577;SDS011;275;48.492;9.214;2023-11-21T05:25:00;3.63;;;0.93;;
577;SDS011;275;48.492;9.214;2023-11-21T05:27:28;3.08;;;0.80;;
577;SDS011;275;48.492;9.214;2023-11-21T05:29:54;2.10;;;0.70;;
577;SDS011;275;48.492;9.214;2023-11-21T05:32:23;2.05;;;0.65;;
577;SDS011;275;48.492;9.214;2023-11-21T05:34:49;2.92;;;0.90;;
577;SDS011;275;48.492;9.214;2023-11-21T05:37:16;2.33;;;0.65;;
577;SDS011;275;48.492;9.214;2023-11-21T05:39:43;2.05;;;0.85;;
577;SDS011;275;48.492;9.214;2023-11-21T05:42:10;2.45;;;1.10;;
577;SDS011;275;48.492;9.214;2023-11-21T05:44:37;2.30;;;0.98;;
577;SDS011;275;48.492;9.214;2023-11-21T05:47:08;2.65;;;1.27;;
577;SDS011;275;48.492;9.214;2023-11-21T05:49:36;2.40;;;1.00;;
577;SDS011;275;48.492;9.214;2023-11-21T05:52:03;3.08;;;1.10;;
577;SDS011;275;48.492;9.214;2023-11-21T05:54:31;3.03;;;1.10;;
577;SDS011;275;48.492;9.214;2023-11-21T05:56:58;3.25;;;1.20;;
577;SDS011;275;48.492;9.214;2023-11-21T05:59:25;3.10;;;1.50;;
577;SDS011;275;48.492;9.214;2023-11-21T06:01:52;3.17;;;1.67;;
577;SDS011;275;48.492;9.214;2023-11-21T06:04:19;3.10;;;1.45;;
577;SDS011;275;48.492;9.214;2023-11-21T06:06:50;3.30;;;1.50;;
577;SDS011;275;48.492;9.214;2023-11-21T06:09:17;3.40;;;1.33;;
577;SDS011;275;48.492;9.214;2023-11-21T06:11:44;2.70;;;1.10;;
577;SDS011;275;48.492;9.214;2023-11-21T06:14:10;3.15;;;1.95;;
577;SDS011;275;48.492;9.214;2023-11-21T06:16:37;4.00;;;1.42;;
577;SDS011;275;48.492;9.214;2023-11-21T06:19:05;2.90;;;1.27;;
577;SDS011;275;48.492;9.214;2023-11-21T06:21:32;4.00;;;2.13;;
577;SDS011;275;48.492;9.214;2023-11-21T06:24:00;6.75;;;3.35;;
577;SDS011;275;48.492;9.214;2023-11-21T06:26:27;4.50;;;2.53;;
577;SDS011;275;48.492;9.214;2023-11-21T06:28:54;3.90;;;2.33;;
577;SDS011;275;48.492;9.214;2023-11-21T06:31:22;5.00;;;2.00;;
577;SDS011;275;48.492;9.214;2023-11-21T06:33:48;5.15;;;3.08;;
577;SDS011;275;48.492;9.214;2023-11-21T06:36:17;10.13;;;3.50;;
577;SDS011;275;48.492;9.214;2023-11-21T06:38:43;3.58;;;2.35;;
577;SDS011;275;48.492;9.214;2023-11-21T06:41:13;4.28;;;2.30;;
577;SDS011;275;48.492;9.214;2023-11-21T06:43:41;6.40;;;2.50;;
577;SDS011;275;48.492;9.214;2023-11-21T06:46:11;4.05;;;3.03;;
577;SDS011;275;48.492;9.214;2023-11-21T06:48:39;4.93;;;2.80;;
577;SDS011;275;48.492;9.214;2023-11-21T06:51:06;4.35;;;2.72;;
577;SDS011;275;48.492;9.214;2023-11-21T06:53:33;4.55;;;2.85;;
577;SDS011;275;48.492;9.214;2023-11-21T06:56:01;3.22;;;2.05;;
577;SDS011;275;48.492;9.214;2023-11-21T06:58:30;4.90;;;2.60;;
577;SDS011;275;48.492;9.214;2023-11-21T07:00:57;3.05;;;1.77;;
577;SDS011;275;48.492;9.214;2023-11-21T07:03:24;5.43;;;1.90;;
577;SDS011;275;48.492;9.214;2023-11-21T07:05:51;3.53;;;2.35;;
577;SDS011;275;48.492;9.214;2023-11-21T07:08:18;2.80;;;1.80;;
577;SDS011;275;48.492;9.214;2023-11-21T07:10:44;3.75;;;1.90;;
577;SDS011;275;48.492;9.214;2023-11-21T07:13:12;2.63;;;1.13;;
577;SDS011;275;48.492;9.214;2023-11-21T07:15:40;4.50;;;1.10;;
577;SDS011;275;48.492;9.214;2023-11-21T07:18:08;2.97;;;1.35;;
577;SDS011;275;48.492;9.214;2023-11-21T07:20:35;3.08;;;1.55;;
577;SDS011;275;48.492;9.214;2023-11-21T07:23:02;3.03;;;1.35;;
577;SDS011;275;48.492;9.214;2023-11-21T07:25:30;2.50;;;1.20;;
577;SDS011;275;48.492;9.214;2023-11-21T07:27:58;2.70;;;1.10;;
577;SDS011;275;48.492;9.214;2023-11-21T07:30:25;2.67;;;1.00;;
577;SDS011;275;48.492;9.214;2023-11-21T07:32:53;2.53;;;0.95;;
577;SDS011;275;48.492;9.214;2023-11-21T07:35:20;2.10;;;0.80;;
577;SDS011;275;48.492;9.214;2023-11-21T07:37:47;2.92;;;1.30;;
577;SDS011;275;48.492;9.214;2023-11-21T07:40:14;2.40;;;1.20;;
577;SDS011;275;48.492;9.214;2023-11-21T07:42:42;4.18;;;1.45;;
577;SDS011;275;48.492;9.214;2023-11-21T07:45:09;7.20;;;3.85;;
577;SDS011;275;48.492;9.214;2023-11-21T07:47:36;3.10;;;1.20;;
577;SDS011;275;48.492;9.214;2023-11-21T07:50:06;2.33;;;1.20;;
577;SDS011;275;48.492;9.214;2023-11-21T07:52:34;3.40;;;1.10;;
577;SDS011;275;48.492;9.214;2023-11-21T07:55:01;2.80;;;1.20;;
577;SDS011;275;48.492;9.214;2023-11-21T07:57:28;3.00;;;1.50;;
577;SDS011;275;48.492;9.214;2023-11-21T07:59:55;3.03;;;1.60;;
577;SDS011;275;48.492;9.214;2023-11-21T08:02:22;3.10;;;1.35;;
577;SDS011;275;48.492;9.214;2023-11-21T08:04:49;2.40;;;0.90;;
577;SDS011;275;48.492;9.214;2023-11-21T08:07:18;3.95;;;1.08;;
577;SDS011;275;48.492;9.214;2023-11-21T08:09:45;3.10;;;1.30;;
577;SDS011;275;48.492;9.214;2023-11-21T08:12:14;2.42;;;1.25;;
577;SDS011;275;48.492;9.214;2023-11-21T08:14:41;2.53;;;0.88;;
577;SDS011;275;48.492;9.214;2023-11-21T08:17:09;3.95;;;0.90;;
577;SDS011;275;48.492;9.214;2023-11-21T08:19:36;2.55;;;1.20;;
577;SDS011;275;48.492;9.214;2023-11-21T08:22:03;2.58;;;1.27;;
577;SDS011;275;48.492;9.214;2023-11-21T08:24:34;2.17;;;0.85;;
577;SDS011;275;48.492;9.214;2023-11-21T08:27:02;2.50;;;1.05;;
577;SDS011;275;48.492;9.214;2023-11-21T08:29:29;2.25;;;0.98;;
577;SDS011;275;48.492;9.214;2023-11-21T08:31:57;2.20;;;0.80;;
577;SDS011;275;48.492;9.214;2023-11-21T08:34:25;5.72;;;1.50;;
577;SDS011;275;48.492;9.214;2023-11-21T08:36:51;3.13;;;1.05;;
577;SDS011;275;48.492;9.214;2023-11-21T08:39:18;3.05;;;0.90;;
577;SDS011;275;48.492;9.214;2023-11-21T08:41:46;2.88;;;0.90;;
577;SDS011;275;48.492;9.214;2023-11-21T08:44:13;3.20;;;1.27;;
577;SDS011;275;48.492;9.214;2023-11-21T08:46:41;2.47;;;1.10;;
577;SDS011;275;48.492;9.214;2023-11-21T08:49:10;2.70;;;1.10;;
577;SDS011;275;48.492;9.214;2023-11-21T08:51:36;3.15;;;1.40;;
577;SDS011;275;48.492;9.214;2023-11-21T08:54:04;2.88;;;1.55;;
577;SDS011;275;48.492;9.214;2023-11-21T08:56:33;2.92;;;1.40;;
577;SDS011;275;48.492;9.214;2023-11-21T08:59:01;2.58;;;1.25;;
577;SDS011;275;48.492;9.214;2023-11-21T09:01:28;2.75;;;1.23;;
577;SDS011;275;48.492;9.214;2023-11-21T09:03:56;3.53;;;1.20;;
577;SDS011;275;48.492;9.214;2023-11-21T09:06:23;2.50;;;1.27;;
577;SDS011;275;48.492;9.214;2023-11-21T09:08:50;2.47;;;1.20;;
577;SDS011;275;48.492;9.214;2023-11-21T09:11:17;2.72;;;1.17;;
577;SDS011;275;48.492;9.214;2023-11-21T09:13:44;2.78;;;1.55;;
577;SDS011;275;48.492;9.214;2023-11-21T09:16:13;2.67;;;1.15;;
577;SDS011;275;48.492;9.214;2023-11-21T09:18:40;3.60;;;1.40;;
577;SDS011;275;48.492;9.214;2023-11-21T09:21:07;3.20;;;1.15;;
577;SDS011;275;48.492;9.214;2023-11-21T09:23:34;2.40;;;0.90;;
577;SDS011;275;48.492;9.214;2023-11-21T09:26:01;3.15;;;1.30;;
577;SDS011;275;48.492;9.214;2023-11-21T09:28:28;4.13;;;1.58;;
577;SDS011;275;48.492;9.214;2023-11-21T09:30:55;2.90;;;1.20;;
577;SDS011;275;48.492;9.214;2023-11-21T09:33:23;2.40;;;1.27;;
577;SDS011;275;48.492;9.214;2023-11-21T09:35:50;3.15;;;1.48;;
577;SDS011;275;48.492;9.214;2023-11-21T09:38:17;3.50;;;1.40;;
577;SDS011;275;48.492;9.214;2023-11-21T09:40:44;3.13;;;1.05;;
577;SDS011;275;48.492;9.214;2023-11-21T09:43:14;2.45;;;1.00;;
577;SDS011;275;48.492;9.214;2023-11-21T09:45:44;2.50;;;1.30;;
577;SDS011;275;48.492;9.214;2023-11-21T09:48:13;3.30;;;1.50;;
577;SDS011;275;48.492;9.214;2023-11-21T09:50:43;2.70;;;1.20;;
577;SDS011;275;48.492;9.214;2023-11-21T09:53:13;2.63;;;1.15;;
577;SDS011;275;48.492;9.214;2023-11-21T09:55:43;2.63;;;1.20;;
577;SDS011;275;48.492;9.214;2023-11-21T09:58:11;2.90;;;1.60;;
577;SDS011;275;48.492;9.214;2023-11-21T10:00:39;3.45;;;1.70;;
577;SDS011;275;48.492;9.214;2023-11-21T10:03:07;2.70;;;1.33;;
577;SDS011;275;48.492;9.214;2023-11-21T10:05:34;3.00;;;1.50;;
577;SDS011;275;48.492;9.214;2023-11-21T10:08:02;2.78;;;1.27;;
577;SDS011;275;48.492;9.214;2023-11-21T10:10:32;2.90;;;1.70;;
577;SDS011;275;48.492;9.214;2023-11-21T10:13:01;3.33;;;1.80;;
577;SDS011;275;48.492;9.214;2023-11-21T10:15:31;3.97;;;2.20;;
577;SDS011;275;48.492;9.214;2023-11-21T10:18:01;4.88;;;2.15;;
577;SDS011;275;48.492;9.214;2023-11-21T10:20:29;3.03;;;1.30;;
577;SDS011;275;48.492;9.214;2023-11-21T10:22:58;4.13;;;1.60;;
577;SDS011;275;48.492;9.214;2023-11-21T10:25:28;7.03;;;2.70;;
577;SDS011;275;48.492;9.214;2023-11-21T10:27:57;3.97;;;1.48;;
577;SDS011;275;48.492;9.214;2023-11-21T10:30:31;4.25;;;2.30;;
577;SDS011;275;48.492;9.214;2023-11-21T10:33:02;3.70;;;1.40;;
577;SDS011;275;48.492;9.214;2023-11-21T10:35:39;2.90;;;1.90;;
577;SDS011;275;48.492;9.214;2023-11-21T10:38:11;3.00;;;1.55;;
577;SDS011;275;48.492;9.214;2023-11-21T10:40:40;4.05;;;1.77;;
577;SDS011;275;48.492;9.214;2023-11-21T10:43:07;3.00;;;1.85;;
577;SDS011;275;48.492;9.214;2023-11-21T10:45:35;2.55;;;1.40;;
577;SDS011;275;48.492;9.214;2023-11-21T10:48:04;2.20;;;1.20;;
577;SDS011;275;48.492;9.214;2023-11-21T10:50:33;2.58;;;1.70;;
577;SDS011;275;48.492;9.214;2023-11-21T10:53:01;3.30;;;2.00;;
577;SDS011;275;48.492;9.214;2023-11-21T10:55:28;3.85;;;2.90;;
577;SDS011;275;48.492;9.214;2023-11-21T10:57:58;3.42;;;1.90;;
577;SDS011;275;48.492;9.214;2023-11-21T11:00:27;3.10;;;1.90;;
577;SDS011;275;48.492;9.214;2023-11-21T11:02:54;2.92;;;2.15;;
577;SDS011;275;48.492;9.214;2023-11-21T11:05:22;8.63;;;4.07;;
577;SDS011;275;48.492;9.214;2023-11-21T11:07:51;6.82;;;2.05;;
577;SDS011;275;48.492;9.214;2023-11-21T11:10:25;2.97;;;1.60;;
577;SDS011;275;48.492;9.214;2023-11-21T11:12:52;3.08;;;1.38;;
577;SDS011;275;48.492;9.214;2023-11-21T11:15:21;3.00;;;1.70;;
577;SDS011;275;48.492;9.214;2023-11-21T11:17:49;4.45;;;2.55;;
577;SDS011;275;48.492;9.214;2023-11-21T11:20:16;4.72;;;2.92;;
577;SDS011;275;48.492;9.214;2023-11-21T11:22:48;6.55;;;3.05;;
577;SDS011;275;48.492;9.214;2023-11-21T11:25:30;4.40;;;1.30;;
577;SDS011;275;48.492;9.214;2023-11-21T11:28:10;2.80;;;1.80;;
577;SDS011;275;48.492;9.214;2023-11-21T11:30:45;4.93;;;2.30;;
577;SDS011;275;48.492;9.214;2023-11-21T11:33:22;4.70;;;3.28;;
577;SDS011;275;48.492;9.214;2023-11-21T11:36:00;5.97;;;5.13;;
577;SDS011;275;48.492;9.214;2023-11-21T11:38:32;3.08;;;2.72;;
577;SDS011;275;48.492;9.214;2023-11-21T11:41:01;3.20;;;2.63;;
577;SDS011;275;48.492;9.214;2023-11-21T11:43:30;7.30;;;6.70;;
577;SDS011;275;48.492;9.214;2023-11-21T11:45:59;5.00;;;4.50;;
577;SDS011;275;48.492;9.214;2023-11-21T11:48:29;3.83;;;2.08;;
577;SDS011;275;48.492;9.214;2023-11-21T11:51:01;6.32;;;3.05;;
577;SDS011;275;48.492;9.214;2023-11-21T11:53:32;4.57;;;2.78;;
577;SDS011;275;48.492;9.214;2023-11-21T11:58:52;2.72;;;1.00;;
577;SDS011;275;48.492;9.214;2023-11-21T12:01:24;2.35;;;1.13;;
577;SDS011;275;48.492;9.214;2023-11-21T12:06:55;3.10;;;1.60;;
577;SDS011;275;48.492;9.214;2023-11-21T12:09:24;3.35;;;2.00;;
577;SDS011;275;48.492;9.214;2023-11-21T12:11:51;2.67;;;1.58;;
577;SDS011;275;48.492;9.214;2023-11-21T12:14:19;3.58;;;1.90;;
577;SDS011;275;48.492;9.214;2023-11-21T12:16:48;2.92;;;1.70;;
577;SDS011;275;48.492;9.214;2023-11-21T12:19:16;3.55;;;2.45;;
577;SDS011;275;48.492;9.214;2023-11-21T12:21:43;3.20;;;2.33;;
577;SDS011;275;48.492;9.214;2023-11-21T12:24:10;3.90;;;3.10;;
577;SDS011;275;48.492;9.214;2023-11-21T12:26:38;3.60;;;2.88;;
577;SDS011;275;48.492;9.214;2023-11-21T12:29:06;2.30;;;1.25;;
577;SDS011;275;48.492;9.214;2023-11-21T12:31:33;2.85;;;1.67;;
577;SDS011;275;48.492;9.214;2023-11-21T12:34:02;4.05;;;1.90;;
577;SDS011;275;48.492;9.214;2023-11-21T12:36:31;3.15;;;2.08;;
577;SDS011;275;48.492;9.214;2023-11-21T12:38:59;3.30;;;2.08;;
577;SDS011;275;48.492;9.214;2023-11-21T12:41:27;2.90;;;2.08;;
577;SDS011;275;48.492;9.214;2023-11-21T12:43:55;2.97;;;1.80;;
577;SDS011;275;48.492;9.214;2023-11-21T12:46:22;3.47;;;2.05;;
577;SDS011;275;48.492;9.214;2023-11-21T12:48:51;3.17;;;2.00;;
577;SDS011;275;48.492;9.214;2023-11-21T12:51:19;4.85;;;1.75;;
577;SDS011;275;48.492;9.214;2023-11-21T12:53:47;3.00;;;2.05;;
577;SDS011;275;48.492;9.214;2023-11-21T12:56:15;2.95;;;1.50;;
577;SDS011;275;48.492;9.214;2023-11-21T12:58:44;2.63;;;1.85;;
577;SDS011;275;48.492;9.214;2023-11-21T13:01:12;3.05;;;2.00;;
577;SDS011;275;48.492;9.214;2023-11-21T13:03:43;3.05;;;2.20;;
577;SDS011;275;48.492;9.214;2023-11-21T13:06:13;2.70;;;1.60;;
577;SDS011;275;48.492;9.214;2023-11-21T13:08:43;4.32;;;2.40;;
577;SDS011;275;48.492;9.214;2023-11-21T13:11:10;7.15;;;2.83;;
577;SDS011;275;48.492;9.214;2023-11-21T13:13:39;3.70;;;1.80;;
577;SDS011;275;48.492;9.214;2023-11-21T13:16:07;3.65;;;1.80;;
577;SDS011;275;48.492;9.214;2023-11-21T13:18:35;2.63;;;1.90;;
577;SDS011;275;48.492;9.214;2023-11-21T13:21:03;3.00;;;2.10;;
577;SDS011;275;48.492;9.214;2023-11-21T13:23:35;3.13;;;2.20;;
577;SDS011;275;48.492;9.214;2023-11-21T13:26:04;4.18;;;2.42;;
577;SDS011;275;48.492;9.214;2023-11-21T13:28:31;2.95;;;2.10;;
577;SDS011;275;48.492;9.214;2023-11-21T13:30:59;3.05;;;1.90;;
577;SDS011;275;48.492;9.214;2023-11-21T13:33:34;3.38;;;2.00;;
577;SDS011;275;48.492;9.214;2023-11-21T13:36:03;4.63;;;2.60;;
577;SDS011;275;48.492;9.214;2023-11-21T13:38:33;4.60;;;3.13;;
577;SDS011;275;48.492;9.214;2023-11-21T13:41:01;3.15;;;2.00;;
577;SDS011;275;48.492;9.214;2023-11-21T13:43:33;3.58;;;2.38;;
577;SDS011;275;48.492;9.214;2023-11-21T13:46:02;3.60;;;2.00;;
577;SDS011;275;48.492;9.214;2023-11-21T13:48:36;3.78;;;1.75;;
577;SDS011;275;48.492;9.214;2023-11-21T13:51:07;3.75;;;1.60;;
577;SDS011;275;48.492;9.214;2023-11-21T13:53:42;3.78;;;2.60;;
577;SDS011;275;48.492;9.214;2023-11-21T13:56:09;4.95;;;4.00;;
577;SDS011;275;48.492;9.214;2023-11-21T13:58:39;4.43;;;4.03;;
577;SDS011;275;48.492;9.214;2023-11-21T14:01:11;4.05;;;3.20;;
577;SDS011;275;48.492;9.214;2023-11-21T14:03:57;4.85;;;3.40;;
577;SDS011;275;48.492;9.214;2023-11-21T14:06:33;4.93;;;3.63;;
577;SDS011;275;48.492;9.214;2023-11-21T14:09:10;3.60;;;2.97;;
577;SDS011;275;48.492;9.214;2023-11-21T14:11:39;4.10;;;2.70;;
577;SDS011;275;48.492;9.214;2023-11-21T14:14:07;3.22;;;2.88;;
577;SDS011;275;48.492;9.214;2023-11-21T14:16:34;4.88;;;3.40;;
577;SDS011;275;48.492;9.214;2023-11-21T14:19:02;4.78;;;3.78;;
577;SDS011;275;48.492;9.214;2023-11-21T14:21:40;5.18;;;4.68;;
577;SDS011;275;48.492;9.214;2023-11-21T14:24:08;5.93;;;5.13;;
577;SDS011;275;48.492;9.214;2023-11-21T14:26:37;6.45;;;4.78;;
577;SDS011;275;48.492;9.214;2023-11-21T14:29:05;4.22;;;3.67;;
577;SDS011;275;48.492;9.214;2023-11-21T14:31:36;3.65;;;3.00;;
577;SDS011;275;48.492;9.214;2023-11-21T14:34:03;5.07;;;3.50;;
577;SDS011;275;48.492;9.214;2023-11-21T14:36:31;3.70;;;3.05;;
577;SDS011;275;48.492;9.214;2023-11-21T14:38:58;4.28;;;3.13;;
577;SDS011;275;48.492;9.214;2023-11-21T14:41:25;3.88;;;3.35;;
577;SDS011;275;48.492;9.214;2023-11-21T14:43:53;4.15;;;2.95;;
577;SDS011;275;48.492;9.214;2023-11-21T14:46:21;3.22;;;2.65;;
577;SDS011;275;48.492;9.214;2023-11-21T14:48:48;3.47;;;2.95;;
577;SDS011;275;48.492;9.214;2023-11-21T14:51:23;3.65;;;3.20;;
577;SDS011;275;48.492;9.214;2023-11-21T14:53:55;3.90;;;2.95;;
577;SDS011;275;48.492;9.214;2023-11-21T14:56:26;4.55;;;3.42;;
577;SDS011;275;48.492;9.214;2023-11-21T14:58:56;3.67;;;3.00;;
577;SDS011;275;48.492;9.214;2023-11-21T15:01:26;3.80;;;3.10;;
577;SDS011;275;48.492;9.214;2023-11-21T15:04:08;6.55;;;5.30;;
577;SDS011;275;48.492;9.214;2023-11-21T15:06:39;5.82;;;5.30;;
577;SDS011;275;48.492;9.214;2023-11-21T15:09:07;5.10;;;4.60;;
577;SDS011;275;48.492;9.214;2023-11-21T15:12:00;5.88;;;4.57;;
577;SDS011;275;48.492;9.214;2023-11-21T15:14:38;4.40;;;4.00;;
577;SDS011;275;48.492;9.214;2023-11-21T15:17:06;13.52;;;4.47;;
577;SDS011;275;48.492;9.214;2023-11-21T15:19:33;4.68;;;4.25;;
577;SDS011;275;48.492;9.214;2023-11-21T15:22:00;4.82;;;4.32;;
577;SDS011;275;48.492;9.214;2023-11-21T15:24:27;4.60;;;4.20;;
577;SDS011;275;48.492;9.214;2023-11-21T15:26:54;5.35;;;4.40;;
577;SDS011;275;48.492;9.214;2023-11-21T15:29:22;6.20;;;5.47;;
577;SDS011;275;48.492;9.214;2023-11-21T15:31:51;6.25;;;5.65;;
577;SDS011;275;48.492;9.214;2023-11-21T15:34:21;5.63;;;5.00;;
577;SDS011;275;48.492;9.214;2023-11-21T15:36:48;6.07;;;4.97;;
577;SDS011;275;48.492;9.214;2023-11-21T15:39:18;4.40;;;4.00;;
577;SDS011;275;48.492;9.214;2023-11-21T15:41:46;4.40;;;4.00;;
577;SDS011;275;48.492;9.214;2023-11-21T15:44:13;5.00;;;4.50;;
577;SDS011;275;48.492;9.214;2023-11-21T15:46:41;5.35;;;4.95;;
577;SDS011;275;48.492;9.214;2023-11-21T15:49:08;5.20;;;4.68;;
577;SDS011;275;48.492;9.214;2023-11-21T15:51:38;6.13;;;5.57;;
577;SDS011;275;48.492;9.214;2023-11-21T15:54:06;5.50;;;5.00;;
577;SDS011;275;48.492;9.214;2023-11-21T15:56:33;5.47;;;5.00;;